createdAt,value
2023-02-25T00:00:32.241Z,4.60
2023-02-25T00:01:35.036Z,4.50
2023-02-25T00:02:39.302Z,4.50
2023-02-25T00:03:42.994Z,4.50
2023-02-25T00:04:46.775Z,4.50
2023-02-25T00:05:49.543Z,4.50
2023-02-25T00:06:53.309Z,4.50
2023-02-25T00:07:56.253Z,4.50
2023-02-25T00:09:01.189Z,4.50
2023-02-25T00:10:04.660Z,4.50
2023-02-25T00:11:09.570Z,4.50
2023-02-25T00:12:12.600Z,4.50
2023-02-25T00:13:18.709Z,4.50
2023-02-25T00:14:22.967Z,4.50
2023-02-25T00:15:25.920Z,4.50
2023-02-25T00:16:29.824Z,4.50
2023-02-25T00:17:32.654Z,4.50
2023-02-25T00:18:36.799Z,4.50
2023-02-25T00:19:39.837Z,4.50
2023-02-25T00:20:46.611Z,4.50
2023-02-25T00:21:49.413Z,4.50
2023-02-25T00:22:53.212Z,4.50
2023-02-25T00:24:00.093Z,4.50
2023-02-25T00:25:10.232Z,4.50
2023-02-25T00:26:20.633Z,4.50
2023-02-25T00:27:26.473Z,4.50
2023-02-25T00:28:30.717Z,4.50
2023-02-25T00:29:34.682Z,4.50
2023-02-25T00:30:40.308Z,4.50
2023-02-25T00:31:44.437Z,4.50
2023-02-25T00:32:47.687Z,4.50
2023-02-25T00:33:52.349Z,4.50
2023-02-25T00:34:55.196Z,4.50
2023-02-25T00:35:59.254Z,4.50
2023-02-25T00:37:02.116Z,4.50
2023-02-25T00:38:15.772Z,4.50
2023-02-25T00:39:21.372Z,4.50
2023-02-25T00:40:25.592Z,4.50
2023-02-25T00:41:30.716Z,4.50
2023-02-25T00:42:34.339Z,4.50
2023-02-25T00:43:39.293Z,4.50
2023-02-25T00:44:45.606Z,4.50
2023-02-25T00:45:48.255Z,4.50
2023-02-25T00:46:51.949Z,4.40
2023-02-25T00:47:54.886Z,4.40
2023-02-25T00:48:59.818Z,4.40
2023-02-25T00:50:03.495Z,4.40
2023-02-25T00:51:09.863Z,4.40
2023-02-25T00:52:13.593Z,4.40
2023-02-25T00:53:16.488Z,4.30
2023-02-25T00:54:20.291Z,4.30
2023-02-25T00:55:23.324Z,4.30
2023-02-25T00:56:28.031Z,4.30
2023-02-25T00:57:30.715Z,4.30
2023-02-25T00:58:38.900Z,4.20
2023-02-25T00:59:41.757Z,4.20
2023-02-25T01:00:51.760Z,4.20
2023-02-25T01:01:54.825Z,4.20
2023-02-25T01:02:59.644Z,4.10
2023-02-25T01:04:02.517Z,4.10
2023-02-25T01:05:06.946Z,4.10
2023-02-25T01:06:10.569Z,4.10
2023-02-25T01:07:14.422Z,4.00
2023-02-25T01:08:18.298Z,4.00
2023-02-25T01:09:22.472Z,4.00
2023-02-25T01:10:28.856Z,4.00
2023-02-25T01:11:37.459Z,4.00
2023-02-25T01:12:39.995Z,4.00
2023-02-25T01:13:45.875Z,3.90
2023-02-25T01:14:49.644Z,3.90
2023-02-25T01:15:53.844Z,3.90
2023-02-25T01:17:02.000Z,3.90
2023-02-25T01:18:05.277Z,3.80
2023-02-25T01:19:13.966Z,3.80
2023-02-25T01:20:19.964Z,3.80
2023-02-25T01:21:27.503Z,3.80
2023-02-25T01:22:30.224Z,3.80
2023-02-25T01:23:34.186Z,3.70
2023-02-25T01:24:39.293Z,3.70
2023-02-25T01:25:43.347Z,3.70
2023-02-25T01:26:48.815Z,3.70
2023-02-25T01:27:54.708Z,3.70
2023-02-25T01:29:00.382Z,3.70
2023-02-25T01:30:03.566Z,3.70
2023-02-25T01:31:08.607Z,3.60
2023-02-25T01:32:14.211Z,3.60
2023-02-25T01:33:18.028Z,3.60
2023-02-25T01:34:20.988Z,3.60
2023-02-25T01:35:24.728Z,3.60
2023-02-25T01:36:27.768Z,3.60
2023-02-25T01:37:31.354Z,3.60
2023-02-25T01:38:34.365Z,3.60
2023-02-25T01:39:40.226Z,3.60
2023-02-25T01:40:43.053Z,3.60
2023-02-25T01:41:49.032Z,3.50
2023-02-25T01:42:51.663Z,3.50
2023-02-25T01:44:14.008Z,3.50
2023-02-25T01:45:32.682Z,3.50
2023-02-25T01:46:37.523Z,3.50
2023-02-25T01:47:41.689Z,3.50
2023-02-25T01:48:45.487Z,3.50
2023-02-25T01:49:49.218Z,3.50
2023-02-25T01:50:56.651Z,3.50
2023-02-25T01:52:05.998Z,3.50
2023-02-25T01:53:10.165Z,3.50
2023-02-25T01:54:14.404Z,3.50
2023-02-25T01:55:18.501Z,3.50
2023-02-25T01:56:27.303Z,3.50
2023-02-25T01:57:30.101Z,3.50
2023-02-25T01:58:35.195Z,3.50
2023-02-25T01:59:41.812Z,3.50
2023-02-25T02:00:46.203Z,3.60
2023-02-25T02:01:49.455Z,3.60
2023-02-25T02:02:53.335Z,3.60
2023-02-25T02:03:57.145Z,3.60
2023-02-25T02:05:00.784Z,3.70
2023-02-25T02:06:11.954Z,3.70
2023-02-25T02:07:16.746Z,3.70
2023-02-25T02:08:20.602Z,3.70
2023-02-25T02:09:28.489Z,3.70
2023-02-25T02:10:31.292Z,3.80
2023-02-25T02:11:35.534Z,3.80
2023-02-25T02:12:42.105Z,3.80
2023-02-25T02:13:50.072Z,3.90
2023-02-25T02:14:56.606Z,3.90
2023-02-25T02:16:35.797Z,3.90
2023-02-25T02:17:44.666Z,3.90
2023-02-25T02:18:55.364Z,3.90
2023-02-25T02:20:13.445Z,4.00
2023-02-25T02:21:45.201Z,4.00
2023-02-25T02:23:12.869Z,4.00
2023-02-25T02:24:49.223Z,4.00
2023-02-25T02:26:52.072Z,4.10
2023-02-25T02:28:24.598Z,4.10
2023-02-25T02:30:06.652Z,4.10
2023-02-25T02:31:46.830Z,4.10
2023-02-25T02:32:57.140Z,4.10
2023-02-25T02:34:16.858Z,4.10
2023-02-25T02:35:27.719Z,4.10
2023-02-25T02:36:46.890Z,4.10
2023-02-25T02:38:05.821Z,4.10
2023-02-25T02:39:27.085Z,4.10
2023-02-25T02:40:44.674Z,4.10
2023-02-25T02:41:55.122Z,4.10
2023-02-25T02:43:20.155Z,4.10
2023-02-25T02:44:31.017Z,4.10
2023-02-25T02:45:44.341Z,4.10
2023-02-25T02:46:55.445Z,4.10
2023-02-25T02:48:04.421Z,4.10
2023-02-25T02:49:15.092Z,4.10
2023-02-25T02:50:27.288Z,4.10
2023-02-25T02:51:42.827Z,4.10
2023-02-25T02:52:53.491Z,4.10
2023-02-25T02:53:59.873Z,4.10
2023-02-25T02:55:08.250Z,4.10
2023-02-25T02:56:16.056Z,4.20
2023-02-25T02:57:28.135Z,4.10
2023-02-25T02:58:36.528Z,4.20
2023-02-25T02:59:44.872Z,4.20
2023-02-25T03:00:55.830Z,4.20
2023-02-25T03:02:09.002Z,4.20
2023-02-25T03:03:16.949Z,4.20
2023-02-25T03:04:27.009Z,4.20
2023-02-25T03:05:31.806Z,4.20
2023-02-25T03:06:40.893Z,4.20
2023-02-25T03:07:47.589Z,4.20
2023-02-25T03:08:57.876Z,4.20
2023-02-25T03:10:04.735Z,4.30
2023-02-25T03:11:09.309Z,4.30
2023-02-25T03:12:12.494Z,4.30
2023-02-25T03:13:17.939Z,4.30
2023-02-25T03:14:20.901Z,4.30
2023-02-25T03:15:27.479Z,4.30
2023-02-25T03:16:37.423Z,4.30
2023-02-25T03:17:48.288Z,4.30
2023-02-25T03:18:59.285Z,4.30
2023-02-25T03:20:11.792Z,4.30
2023-02-25T03:21:27.109Z,4.30
2023-02-25T03:22:37.881Z,4.30
2023-02-25T03:23:46.501Z,4.40
2023-02-25T03:24:55.516Z,4.40
2023-02-25T03:26:12.073Z,4.40
2023-02-25T03:27:29.359Z,4.40
2023-02-25T03:28:38.074Z,4.40
2023-02-25T03:29:42.437Z,4.40
2023-02-25T03:30:51.711Z,4.40
2023-02-25T03:31:59.153Z,4.40
2023-02-25T03:33:08.910Z,4.40
2023-02-25T03:34:19.411Z,4.40
2023-02-25T03:35:27.108Z,4.40
2023-02-25T03:36:37.940Z,4.40
2023-02-25T03:37:48.204Z,4.40
2023-02-25T03:38:57.587Z,4.50
2023-02-25T03:40:10.851Z,4.40
2023-02-25T03:41:18.140Z,4.50
2023-02-25T03:42:30.229Z,4.50
2023-02-25T03:43:39.412Z,4.50
2023-02-25T03:44:48.834Z,4.50
2023-02-25T03:45:51.645Z,4.50
2023-02-25T03:46:56.527Z,4.50
2023-02-25T03:48:00.177Z,4.50
2023-02-25T03:49:08.130Z,4.50
2023-02-25T03:50:18.767Z,4.50
2023-02-25T03:51:31.818Z,4.50
2023-02-25T03:52:34.985Z,4.50
2023-02-25T03:53:43.194Z,4.50
2023-02-25T03:54:51.980Z,4.50
2023-02-25T03:55:56.720Z,4.50
2023-02-25T03:56:59.506Z,4.50
2023-02-25T03:58:03.587Z,4.50
2023-02-25T03:59:06.272Z,4.50
2023-02-25T04:00:19.182Z,4.50
2023-02-25T04:01:29.376Z,4.50
2023-02-25T04:02:33.955Z,4.50
2023-02-25T04:03:37.842Z,4.50
2023-02-25T04:04:42.638Z,4.50
2023-02-25T04:05:46.570Z,4.50
2023-02-25T04:06:49.713Z,4.50
2023-02-25T04:07:53.622Z,4.50
2023-02-25T04:08:56.335Z,4.50
2023-02-25T04:10:00.569Z,4.50
2023-02-25T04:11:03.652Z,4.50
2023-02-25T04:12:08.296Z,4.50
2023-02-25T04:13:11.648Z,4.50
2023-02-25T04:14:15.678Z,4.50
2023-02-25T04:15:19.450Z,4.50
2023-02-25T04:16:24.230Z,4.50
2023-02-25T04:17:30.442Z,4.50
2023-02-25T04:18:34.313Z,4.50
2023-02-25T04:19:38.962Z,4.50
2023-02-25T04:20:44.256Z,4.40
2023-02-25T04:21:47.251Z,4.40
2023-02-25T04:22:50.975Z,4.40
2023-02-25T04:23:54.048Z,4.40
2023-02-25T04:24:57.842Z,4.40
2023-02-25T04:26:00.766Z,4.40
2023-02-25T04:27:04.912Z,4.40
2023-02-25T04:28:07.694Z,4.40
2023-02-25T04:29:11.584Z,4.40
2023-02-25T04:30:15.693Z,4.40
2023-02-25T04:31:19.772Z,4.40
2023-02-25T04:32:22.802Z,4.40
2023-02-25T04:33:26.516Z,4.40
2023-02-25T04:34:29.366Z,4.40
2023-02-25T04:35:33.011Z,4.40
2023-02-25T04:36:37.188Z,4.40
2023-02-25T04:37:41.532Z,4.40
2023-02-25T04:38:44.519Z,4.40
2023-02-25T04:39:48.321Z,4.40
2023-02-25T04:40:52.239Z,4.30
2023-02-25T04:41:56.424Z,4.30
2023-02-25T04:42:59.204Z,4.30
2023-02-25T04:44:05.298Z,4.30
2023-02-25T04:45:10.840Z,4.30
2023-02-25T04:46:15.397Z,4.30
2023-02-25T04:47:19.346Z,4.30
2023-02-25T04:48:24.464Z,4.30
2023-02-25T04:49:28.158Z,4.30
2023-02-25T04:50:31.002Z,4.30
2023-02-25T04:51:35.189Z,4.30
2023-02-25T04:52:39.379Z,4.20
2023-02-25T04:53:43.351Z,4.20
2023-02-25T04:54:46.295Z,4.20
2023-02-25T04:55:50.328Z,4.20
2023-02-25T04:56:53.129Z,4.20
2023-02-25T04:57:56.990Z,4.20
2023-02-25T04:58:59.685Z,4.10
2023-02-25T05:00:10.854Z,4.10
2023-02-25T05:01:15.420Z,4.10
2023-02-25T05:02:23.215Z,4.10
2023-02-25T05:03:29.259Z,4.10
2023-02-25T05:04:34.031Z,4.00
2023-02-25T05:05:40.271Z,4.00
2023-02-25T05:06:44.335Z,4.00
2023-02-25T05:07:49.617Z,4.00
2023-02-25T05:08:53.906Z,4.00
2023-02-25T05:09:58.356Z,4.00
2023-02-25T05:11:03.436Z,4.00
2023-02-25T05:12:07.306Z,4.00
2023-02-25T05:13:11.036Z,3.90
2023-02-25T05:14:13.959Z,3.90
2023-02-25T05:15:17.725Z,3.90
2023-02-25T05:16:20.952Z,3.90
2023-02-25T05:17:24.860Z,3.90
2023-02-25T05:18:27.651Z,3.90
2023-02-25T05:19:31.252Z,3.90
2023-02-25T05:20:34.081Z,3.80
2023-02-25T05:21:37.953Z,3.80
2023-02-25T05:22:41.916Z,3.80
2023-02-25T05:23:49.774Z,3.80
2023-02-25T05:24:52.689Z,3.80
2023-02-25T05:25:58.051Z,3.80
2023-02-25T05:27:04.886Z,3.80
2023-02-25T05:28:08.746Z,3.80
2023-02-25T05:29:12.992Z,3.80
2023-02-25T05:30:18.950Z,3.90
2023-02-25T05:31:24.853Z,3.90
2023-02-25T05:32:29.240Z,3.90
2023-02-25T05:33:31.890Z,3.90
2023-02-25T05:34:36.610Z,3.90
2023-02-25T05:35:41.116Z,3.90
2023-02-25T05:36:46.938Z,3.90
2023-02-25T05:37:49.932Z,3.90
2023-02-25T05:38:59.026Z,3.90
2023-02-25T05:40:01.710Z,3.90
2023-02-25T05:41:07.102Z,3.90
2023-02-25T05:42:09.830Z,3.90
2023-02-25T05:43:13.775Z,3.90
2023-02-25T05:44:17.927Z,3.90
2023-02-25T05:45:20.716Z,3.90
2023-02-25T05:46:24.983Z,3.90
2023-02-25T05:47:28.102Z,3.90
2023-02-25T05:48:33.544Z,3.90
2023-02-25T05:49:36.309Z,3.80
2023-02-25T05:50:41.750Z,3.80
2023-02-25T05:51:44.587Z,3.80
2023-02-25T05:52:48.502Z,3.80
2023-02-25T05:53:51.769Z,3.80
2023-02-25T05:54:56.827Z,3.80
2023-02-25T05:55:59.861Z,3.80
2023-02-25T05:57:03.477Z,3.80
2023-02-25T05:58:06.950Z,3.80
2023-02-25T05:59:12.273Z,3.70
2023-02-25T06:00:21.466Z,3.70
2023-02-25T06:01:29.654Z,3.70
2023-02-25T06:02:34.121Z,3.70
2023-02-25T06:03:38.238Z,3.70
2023-02-25T06:04:41.114Z,3.70
2023-02-25T06:05:47.839Z,3.60
2023-02-25T06:06:51.996Z,3.60
2023-02-25T06:07:56.041Z,3.60
2023-02-25T06:08:58.847Z,3.60
2023-02-25T06:10:04.809Z,3.60
2023-02-25T06:11:08.574Z,3.50
2023-02-25T06:12:13.452Z,3.50
2023-02-25T06:13:16.059Z,3.50
2023-02-25T06:14:19.936Z,3.50
2023-02-25T06:15:22.616Z,3.50
2023-02-25T06:16:32.398Z,3.50
2023-02-25T06:17:35.555Z,3.50
2023-02-25T06:18:39.865Z,3.50
2023-02-25T06:19:42.566Z,3.50
2023-02-25T06:20:46.505Z,3.50
2023-02-25T06:21:50.207Z,3.50
2023-02-25T06:22:53.153Z,3.50
2023-02-25T06:23:57.097Z,3.40
2023-02-25T06:25:00.364Z,3.40
2023-02-25T06:26:08.039Z,3.40
2023-02-25T06:27:10.850Z,3.40
2023-02-25T06:28:14.743Z,3.40
2023-02-25T06:29:17.787Z,3.40
2023-02-25T06:30:21.824Z,3.40
2023-02-25T06:31:25.681Z,3.40
2023-02-25T06:32:29.712Z,3.40
2023-02-25T06:33:32.915Z,3.40
2023-02-25T06:34:36.994Z,3.40
2023-02-25T06:35:40.132Z,3.40
2023-02-25T06:36:43.982Z,3.40
2023-02-25T06:37:46.781Z,3.40
2023-02-25T06:38:50.698Z,3.40
2023-02-25T06:39:54.183Z,3.30
2023-02-25T06:40:58.113Z,3.30
2023-02-25T06:42:02.478Z,3.30
2023-02-25T06:43:06.240Z,3.30
2023-02-25T06:44:08.992Z,3.30
2023-02-25T06:45:13.460Z,3.30
2023-02-25T06:46:16.553Z,3.30
2023-02-25T06:47:20.295Z,3.30
2023-02-25T06:48:23.245Z,3.30
2023-02-25T06:49:27.074Z,3.30
2023-02-25T06:50:29.830Z,3.30
2023-02-25T06:51:33.624Z,3.30
2023-02-25T06:52:36.337Z,3.30
2023-02-25T06:53:41.455Z,3.40
2023-02-25T06:54:44.181Z,3.40
2023-02-25T06:55:47.975Z,3.40
2023-02-25T06:56:50.871Z,3.40
2023-02-25T06:57:55.991Z,3.40
2023-02-25T06:58:59.620Z,3.40
2023-02-25T07:00:05.570Z,3.40
2023-02-25T07:01:15.206Z,3.50
2023-02-25T07:02:19.616Z,3.50
2023-02-25T07:03:23.068Z,3.50
2023-02-25T07:04:27.022Z,3.50
2023-02-25T07:05:30.319Z,3.60
2023-02-25T07:06:34.187Z,3.60
2023-02-25T07:07:36.943Z,3.60
2023-02-25T07:08:40.631Z,3.60
2023-02-25T07:09:44.203Z,3.70
2023-02-25T07:10:47.886Z,3.70
2023-02-25T07:11:50.757Z,3.70
2023-02-25T07:12:56.227Z,3.70
2023-02-25T07:13:58.937Z,3.70
2023-02-25T07:15:03.293Z,3.80
2023-02-25T07:16:06.899Z,3.80
2023-02-25T07:17:10.603Z,3.90
2023-02-25T07:18:13.483Z,3.90
2023-02-25T07:19:17.754Z,3.90
2023-02-25T07:20:20.415Z,4.00
2023-02-25T07:21:24.429Z,4.10
2023-02-25T07:22:27.103Z,4.10
2023-02-25T07:23:30.992Z,4.20
2023-02-25T07:24:33.801Z,4.30
2023-02-25T07:25:39.514Z,4.30
2023-02-25T07:26:42.141Z,4.50
2023-02-25T07:27:46.284Z,4.60
2023-02-25T07:28:50.579Z,4.90
2023-02-25T07:29:55.082Z,5.10
2023-02-25T07:31:00.469Z,5.30
2023-02-25T07:32:04.896Z,5.40
2023-02-25T07:33:08.796Z,5.60
2023-02-25T07:34:14.971Z,5.70
2023-02-25T07:35:19.214Z,5.90
2023-02-25T07:36:23.680Z,6.10
2023-02-25T07:37:27.801Z,6.40
2023-02-25T07:38:30.810Z,6.70
2023-02-25T07:39:34.579Z,6.80
2023-02-25T07:40:37.341Z,7.00
2023-02-25T07:41:41.436Z,7.00
2023-02-25T07:42:47.368Z,7.10
2023-02-25T07:43:52.642Z,7.10
2023-02-25T07:44:55.693Z,7.10
2023-02-25T07:46:00.187Z,7.10
2023-02-25T07:47:04.021Z,7.10
2023-02-25T07:48:08.027Z,7.10
2023-02-25T07:49:12.090Z,7.00
2023-02-25T07:50:14.976Z,7.00
2023-02-25T07:51:21.478Z,6.90
2023-02-25T07:52:24.432Z,7.00
2023-02-25T07:53:28.659Z,7.10
2023-02-25T07:54:31.594Z,7.10
2023-02-25T07:55:35.585Z,7.10
2023-02-25T07:56:38.632Z,7.10
2023-02-25T07:57:42.760Z,7.10
2023-02-25T07:58:45.946Z,7.00
2023-02-25T07:59:51.127Z,7.00
2023-02-25T08:00:59.035Z,6.90
2023-02-25T08:02:03.194Z,6.90
2023-02-25T08:03:06.511Z,6.80
2023-02-25T08:04:10.585Z,6.80
2023-02-25T08:05:13.535Z,6.70
2023-02-25T08:06:17.864Z,6.70
2023-02-25T08:07:22.052Z,6.60
2023-02-25T08:08:24.791Z,6.50
2023-02-25T08:09:28.696Z,6.50
2023-02-25T08:10:32.014Z,6.50
2023-02-25T08:11:35.852Z,6.40
2023-02-25T08:12:38.590Z,6.40
2023-02-25T08:13:42.828Z,6.40
2023-02-25T08:14:46.512Z,6.30
2023-02-25T08:15:52.044Z,6.30
2023-02-25T08:16:57.963Z,6.20
2023-02-25T08:18:00.890Z,6.20
2023-02-25T08:19:05.856Z,6.10
2023-02-25T08:20:10.580Z,6.10
2023-02-25T08:21:18.220Z,6.10
2023-02-25T08:22:21.143Z,6.00
2023-02-25T08:23:25.071Z,6.00
2023-02-25T08:24:28.427Z,6.00
2023-02-25T08:25:32.517Z,6.00
2023-02-25T08:26:35.684Z,6.00
2023-02-25T08:27:40.005Z,5.90
2023-02-25T08:28:43.286Z,5.90
2023-02-25T08:29:47.247Z,5.90
2023-02-25T08:30:51.665Z,5.90
2023-02-25T08:31:55.736Z,5.80
2023-02-25T08:32:58.828Z,5.80
2023-02-25T08:34:03.052Z,5.90
2023-02-25T08:35:06.707Z,5.90
2023-02-25T08:36:12.794Z,6.00
2023-02-25T08:37:16.550Z,6.00
2023-02-25T08:38:19.494Z,6.10
2023-02-25T08:39:23.557Z,6.10
2023-02-25T08:40:26.402Z,6.20
2023-02-25T08:41:31.438Z,6.20
2023-02-25T08:42:34.454Z,6.20
2023-02-25T08:43:38.848Z,6.20
2023-02-25T08:44:43.004Z,6.20
2023-02-25T08:45:46.183Z,6.20
2023-02-25T08:46:51.366Z,6.20
2023-02-25T08:47:55.303Z,6.20
2023-02-25T08:49:00.054Z,6.20
2023-02-25T08:50:03.237Z,6.30
2023-02-25T08:51:09.265Z,6.30
2023-02-25T08:52:12.152Z,6.40
2023-02-25T08:53:16.170Z,6.50
2023-02-25T08:54:20.259Z,6.80
2023-02-25T08:55:24.877Z,6.90
2023-02-25T08:56:28.848Z,7.10
2023-02-25T08:57:32.639Z,7.20
2023-02-25T08:58:36.578Z,7.30
2023-02-25T08:59:41.081Z,7.40
2023-02-25T09:00:43.735Z,7.40
2023-02-25T09:01:49.154Z,7.50
2023-02-25T09:02:53.297Z,7.50
2023-02-25T09:03:58.261Z,7.50
2023-02-25T09:05:00.963Z,7.50
2023-02-25T09:06:05.043Z,7.50
2023-02-25T09:07:09.245Z,7.50
2023-02-25T09:08:11.846Z,7.50
2023-02-25T09:09:15.851Z,7.50
2023-02-25T09:10:20.523Z,7.50
2023-02-25T09:11:25.372Z,7.50
2023-02-25T09:12:31.456Z,7.50
2023-02-25T09:13:35.321Z,7.50
2023-02-25T09:14:38.673Z,7.60
2023-02-25T09:15:42.551Z,7.60
2023-02-25T09:16:45.749Z,7.70
2023-02-25T09:17:53.274Z,7.70
2023-02-25T09:18:58.676Z,7.80
2023-02-25T09:20:01.537Z,7.80
2023-02-25T09:21:05.698Z,7.90
2023-02-25T09:22:10.192Z,7.90
2023-02-25T09:23:15.822Z,7.90
2023-02-25T09:24:20.029Z,7.90
2023-02-25T09:25:24.045Z,7.90
2023-02-25T09:26:30.381Z,7.90
2023-02-25T09:27:34.589Z,7.90
2023-02-25T09:28:37.686Z,7.90
2023-02-25T09:29:41.772Z,7.90
2023-02-25T09:30:46.326Z,7.90
2023-02-25T09:31:50.198Z,7.80
2023-02-25T09:32:54.399Z,7.80
2023-02-25T09:33:58.637Z,7.80
2023-02-25T09:35:07.092Z,7.70
2023-02-25T09:36:13.166Z,7.70
2023-02-25T09:37:16.894Z,7.70
2023-02-25T09:38:20.028Z,7.80
2023-02-25T09:39:33.135Z,8.10
2023-02-25T09:40:36.131Z,8.40
2023-02-25T09:41:50.263Z,8.70
2023-02-25T09:43:06.461Z,8.80
2023-02-25T09:44:16.310Z,8.90
2023-02-25T09:45:23.818Z,8.90
2023-02-25T09:46:30.152Z,8.90
2023-02-25T09:47:43.076Z,8.80
2023-02-25T09:48:53.876Z,8.70
2023-02-25T09:50:03.952Z,8.60
2023-02-25T09:51:23.887Z,8.50
2023-02-25T09:52:32.652Z,8.40
2023-02-25T09:53:43.153Z,8.20
2023-02-25T09:54:49.497Z,8.10
2023-02-25T09:55:53.668Z,8.00
2023-02-25T09:57:00.268Z,7.90
2023-02-25T09:58:09.094Z,7.70
2023-02-25T09:59:17.495Z,7.60
2023-02-25T10:00:22.314Z,7.50
2023-02-25T10:01:35.596Z,7.40
2023-02-25T10:02:49.193Z,7.30
2023-02-25T10:03:59.700Z,7.20
2023-02-25T10:05:25.899Z,7.20
2023-02-25T10:06:36.753Z,7.10
2023-02-25T10:07:58.245Z,7.10
2023-02-25T10:09:12.096Z,7.10
2023-02-25T10:10:22.452Z,7.10
2023-02-25T10:11:42.828Z,7.10
2023-02-25T10:13:06.177Z,7.10
2023-02-25T10:14:25.477Z,7.10
2023-02-25T10:15:52.650Z,7.20
2023-02-25T10:17:11.527Z,7.20
2023-02-25T10:18:35.180Z,7.30
2023-02-25T10:20:01.292Z,7.40
2023-02-25T10:21:21.863Z,7.50
2023-02-25T10:22:44.608Z,7.70
2023-02-25T10:24:09.688Z,7.70
2023-02-25T10:25:18.314Z,7.90
2023-02-25T10:26:25.907Z,8.00
2023-02-25T10:27:33.996Z,8.10
2023-02-25T10:28:40.445Z,8.20
2023-02-25T10:29:49.843Z,8.30
2023-02-25T10:31:00.935Z,8.40
2023-02-25T10:32:22.155Z,8.80
2023-02-25T10:33:28.804Z,9.60
2023-02-25T10:34:37.200Z,10.50
2023-02-25T10:35:43.070Z,11.40
2023-02-25T10:36:53.786Z,12.30
2023-02-25T10:37:57.762Z,13.30
2023-02-25T10:39:00.801Z,14.20
2023-02-25T10:40:11.233Z,15.10
2023-02-25T10:41:15.737Z,16.00
2023-02-25T10:42:19.648Z,16.80
2023-02-25T10:43:25.504Z,17.60
2023-02-25T10:44:29.294Z,18.30
2023-02-25T10:45:34.249Z,19.00
2023-02-25T10:46:42.934Z,19.60
2023-02-25T10:47:51.666Z,20.10
2023-02-25T10:48:58.588Z,20.60
2023-02-25T10:50:29.826Z,21.10
2023-02-25T10:51:39.574Z,21.50
2023-02-25T10:53:01.364Z,21.80
2023-02-25T10:54:08.611Z,22.10
2023-02-25T10:55:51.831Z,22.30
2023-02-25T10:56:58.782Z,22.60
2023-02-25T10:58:01.583Z,22.80
2023-02-25T10:59:08.432Z,23.00
2023-02-25T11:00:27.558Z,23.20
2023-02-25T11:01:38.625Z,23.40
2023-02-25T11:02:45.019Z,23.60
2023-02-25T11:03:56.003Z,23.70
2023-02-25T11:05:00.511Z,23.80
2023-02-25T11:07:34.466Z,23.70
2023-02-25T11:08:38.787Z,23.30
2023-02-25T11:09:42.601Z,22.60
2023-02-25T11:11:03.163Z,21.90
2023-02-25T11:12:20.490Z,20.90
2023-02-25T11:13:30.437Z,19.90
2023-02-25T11:14:37.470Z,18.90
2023-02-25T11:15:45.692Z,18.10
2023-02-25T11:16:49.967Z,17.30
2023-02-25T11:17:53.463Z,16.50
2023-02-25T11:19:01.040Z,15.90
2023-02-25T11:20:06.139Z,15.30
2023-02-25T11:21:15.482Z,14.70
2023-02-25T11:22:22.287Z,14.20
2023-02-25T11:23:37.865Z,13.90
2023-02-25T11:24:44.776Z,13.70
2023-02-25T11:25:48.099Z,13.80
2023-02-25T11:26:53.880Z,14.00
2023-02-25T11:27:58.947Z,14.20
2023-02-25T11:29:07.690Z,14.40
2023-02-25T11:30:20.561Z,14.60
2023-02-25T11:31:30.278Z,14.70
2023-02-25T11:32:36.551Z,14.80
2023-02-25T11:33:46.019Z,14.90
2023-02-25T11:34:53.500Z,14.90
2023-02-25T11:36:00.127Z,15.00
2023-02-25T11:37:25.494Z,15.20
2023-02-25T11:38:34.855Z,15.50
2023-02-25T11:39:38.574Z,15.70
2023-02-25T11:40:45.079Z,15.90
2023-02-25T11:42:26.752Z,16.20
2023-02-25T11:43:39.139Z,16.60
2023-02-25T11:44:45.716Z,17.00
2023-02-25T11:46:02.881Z,17.40
2023-02-25T11:47:28.748Z,17.70
2023-02-25T11:48:48.297Z,18.20
2023-02-25T11:50:24.220Z,18.60
2023-02-25T11:51:30.345Z,18.90
2023-02-25T11:52:44.679Z,19.20
2023-02-25T11:54:28.965Z,19.40
2023-02-25T11:55:56.302Z,19.70
2023-02-25T11:57:10.445Z,20.20
2023-02-25T11:58:30.179Z,20.40
2023-02-25T11:59:39.058Z,20.60
2023-02-25T12:00:49.618Z,20.80
2023-02-25T12:02:25.308Z,20.80
2023-02-25T12:04:18.106Z,20.80
2023-02-25T12:06:03.544Z,20.90
2023-02-25T12:07:34.406Z,20.90
2023-02-25T12:09:03.988Z,21.00
2023-02-25T12:10:39.791Z,21.10
2023-02-25T12:12:39.600Z,21.00
2023-02-25T12:14:47.031Z,21.00
2023-02-25T12:16:36.743Z,21.00
2023-02-25T12:18:41.025Z,20.70
2023-02-25T12:20:59.621Z,20.50
2023-02-25T12:22:43.692Z,20.50
2023-02-25T12:24:38.488Z,20.50
2023-02-25T12:25:51.257Z,20.00
2023-02-25T12:27:48.225Z,19.70
2023-02-25T12:29:18.346Z,19.50
2023-02-25T12:30:51.673Z,19.40
2023-02-25T12:32:31.985Z,19.10
2023-02-25T12:34:11.383Z,18.70
2023-02-25T12:35:51.021Z,18.10
2023-02-25T12:37:31.010Z,17.70
2023-02-25T12:39:20.628Z,17.50
2023-02-25T12:40:57.366Z,17.50
2023-02-25T12:42:19.442Z,17.60
2023-02-25T12:43:39.119Z,17.80
2023-02-25T12:45:18.924Z,17.90
2023-02-25T12:46:52.756Z,18.10
2023-02-25T12:48:31.397Z,18.20
2023-02-25T12:50:27.062Z,18.40
2023-02-25T12:52:18.080Z,18.30
2023-02-25T12:53:40.588Z,17.90
2023-02-25T12:55:26.407Z,17.60
2023-02-25T12:57:04.393Z,17.40
2023-02-25T12:58:44.420Z,17.20
2023-02-25T13:00:35.607Z,17.00
2023-02-25T13:02:04.751Z,17.00
2023-02-25T13:03:41.015Z,17.00
2023-02-25T13:05:24.418Z,17.10
2023-02-25T13:07:37.209Z,17.20
2023-02-25T13:09:39.798Z,17.40
2023-02-25T13:11:01.006Z,17.40
2023-02-25T13:12:31.941Z,17.40
2023-02-25T13:14:06.229Z,17.30
2023-02-25T13:15:17.705Z,17.00
2023-02-25T13:16:37.171Z,16.80
2023-02-25T13:18:10.261Z,16.60
2023-02-25T13:20:08.329Z,16.50
2023-02-25T13:21:29.745Z,16.50
2023-02-25T13:22:56.101Z,16.50
2023-02-25T13:24:13.679Z,16.60
2023-02-25T13:25:31.460Z,16.70
2023-02-25T13:27:15.147Z,16.80
2023-02-25T13:28:41.394Z,16.80
2023-02-25T13:30:20.433Z,16.90
2023-02-25T13:31:36.307Z,17.00
2023-02-25T13:32:51.937Z,17.00
2023-02-25T13:34:14.609Z,17.00
2023-02-25T13:35:33.753Z,17.00
2023-02-25T13:37:38.109Z,17.00
2023-02-25T13:39:30.811Z,16.90
2023-02-25T13:40:51.999Z,16.80
2023-02-25T13:43:07.419Z,16.80
2023-02-25T13:44:52.404Z,16.80
2023-02-25T13:46:21.520Z,16.70
2023-02-25T13:47:50.815Z,16.50
2023-02-25T13:49:42.533Z,16.30
2023-02-25T13:51:02.486Z,16.10
2023-02-25T13:52:29.476Z,15.70
2023-02-25T13:53:58.075Z,15.30
2023-02-25T13:55:38.876Z,14.90
2023-02-25T13:57:11.149Z,14.50
2023-02-25T13:58:50.800Z,14.10
2023-02-25T14:00:31.831Z,13.90
2023-02-25T14:01:48.504Z,13.70
2023-02-25T14:03:15.190Z,13.60
2023-02-25T14:05:03.861Z,13.60
2023-02-25T14:06:22.082Z,13.70
2023-02-25T14:07:42.758Z,13.70
2023-02-25T14:09:12.434Z,13.70
2023-02-25T14:10:33.232Z,13.50
2023-02-25T14:11:55.666Z,13.40
2023-02-25T14:13:24.787Z,13.20
2023-02-25T14:14:59.711Z,13.00
2023-02-25T14:16:15.065Z,12.90
2023-02-25T14:17:59.826Z,12.80
2023-02-25T14:19:31.865Z,12.70
2023-02-25T14:20:46.266Z,12.60
2023-02-25T14:22:31.491Z,12.50
2023-02-25T14:23:48.707Z,12.50
2023-02-25T14:25:04.151Z,12.40
2023-02-25T14:26:28.048Z,12.30
2023-02-25T14:27:41.808Z,12.30
2023-02-25T14:29:00.194Z,12.30
2023-02-25T14:30:19.897Z,12.30
2023-02-25T14:31:35.551Z,12.40
2023-02-25T14:33:15.059Z,12.40
2023-02-25T14:34:42.211Z,12.40
2023-02-25T14:36:13.571Z,12.40
2023-02-25T14:37:40.204Z,12.30
2023-02-25T14:39:14.085Z,12.10
2023-02-25T14:40:32.625Z,12.00
2023-02-25T14:41:55.166Z,11.80
2023-02-25T14:43:31.541Z,11.80
2023-02-25T14:44:41.149Z,11.90
2023-02-25T14:45:52.192Z,12.00
2023-02-25T14:47:00.619Z,12.00
2023-02-25T14:48:13.145Z,12.20
2023-02-25T14:49:22.084Z,12.20
2023-02-25T14:50:32.317Z,12.40
2023-02-25T14:52:31.883Z,12.50
2023-02-25T14:54:25.342Z,12.70
2023-02-25T14:56:10.545Z,12.90
2023-02-25T14:57:51.987Z,13.00
2023-02-25T14:59:46.646Z,13.20
2023-02-25T15:01:38.827Z,13.30
2023-02-25T15:03:18.354Z,13.30
2023-02-25T15:04:47.539Z,13.20
2023-02-25T15:06:10.040Z,13.00
2023-02-25T15:07:39.672Z,12.70
2023-02-25T15:09:32.366Z,12.50
2023-02-25T15:10:49.665Z,12.40
2023-02-25T15:12:40.282Z,12.20
2023-02-25T15:14:32.453Z,12.00
2023-02-25T15:15:59.425Z,11.70
2023-02-25T15:17:57.260Z,11.50
2023-02-25T15:19:45.084Z,11.40
2023-02-25T15:20:52.108Z,11.40
2023-02-25T15:22:21.404Z,11.40
2023-02-25T15:23:50.637Z,11.40
2023-02-25T15:24:54.874Z,11.40
2023-02-25T15:26:25.699Z,11.50
2023-02-25T15:27:50.506Z,11.40
2023-02-25T15:28:55.206Z,11.30
2023-02-25T15:30:00.034Z,11.20
2023-02-25T15:31:31.005Z,11.10
2023-02-25T15:33:16.828Z,10.90
2023-02-25T15:34:55.652Z,10.70
2023-02-25T15:36:00.773Z,10.40
2023-02-25T15:37:35.781Z,10.30
2023-02-25T15:38:46.073Z,10.10
2023-02-25T15:39:56.218Z,10.00
2023-02-25T15:41:02.560Z,9.90
2023-02-25T15:42:08.622Z,9.80
2023-02-25T15:43:45.950Z,9.70
2023-02-25T15:44:51.620Z,9.50
2023-02-25T15:46:14.974Z,9.40
2023-02-25T15:47:31.980Z,9.30